sensor_id;sensor_type;location;lat;lon;timestamp;temperature;humidity
34568;DHT22;20806;50.746;7.116;2023-02-14T00:36:09;6.80;99.90
34568;DHT22;20806;50.746;7.116;2023-02-14T00:38:36;6.70;99.90
34568;DHT22;20806;50.746;7.116;2023-02-14T00:41:01;6.70;99.90
34568;DHT22;20806;50.746;7.116;2023-02-14T00:43:27;6.60;99.90
34568;DHT22;20806;50.746;7.116;2023-02-14T00:45:52;6.40;99.90
34568;DHT22;20806;50.746;7.116;2023-02-14T00:48:18;6.40;99.90
34568;DHT22;20806;50.746;7.116;2023-02-14T00:50:43;6.30;99.90
34568;DHT22;20806;50.746;7.116;2023-02-14T00:53:10;6.30;99.90
34568;DHT22;20806;50.746;7.116;2023-02-14T00:55:36;6.30;99.90
34568;DHT22;20806;50.746;7.116;2023-02-14T00:58:01;6.30;99.90
34568;DHT22;20806;50.746;7.116;2023-02-14T01:00:27;6.30;99.90
34568;DHT22;20806;50.746;7.116;2023-02-14T01:02:52;6.30;99.90
34568;DHT22;20806;50.746;7.116;2023-02-14T01:05:17;6.30;99.90
34568;DHT22;20806;50.746;7.116;2023-02-14T01:07:43;6.30;99.90
34568;DHT22;20806;50.746;7.116;2023-02-14T01:10:11;6.30;99.90
34568;DHT22;20806;50.746;7.116;2023-02-14T01:12:37;6.20;99.90
34568;DHT22;20806;50.746;7.116;2023-02-14T01:15:02;6.20;99.90
34568;DHT22;20806;50.746;7.116;2023-02-14T01:17:33;6.20;99.90
34568;DHT22;20806;50.746;7.116;2023-02-14T01:19:59;6.30;99.90
34568;DHT22;20806;50.746;7.116;2023-02-14T01:28:30;6.40;99.90
34568;DHT22;20806;50.746;7.116;2023-02-14T01:30:56;6.40;99.90
34568;DHT22;20806;50.746;7.116;2023-02-14T01:33:21;6.50;99.90
34568;DHT22;20806;50.746;7.116;2023-02-14T02:00:01;6.30;99.90
34568;DHT22;20806;50.746;7.116;2023-02-14T02:24:10;6.20;99.90
34568;DHT22;20806;50.746;7.116;2023-02-14T02:32:14;6.30;99.90
34568;DHT22;20806;50.746;7.116;2023-02-14T02:37:35;6.20;99.90
34568;DHT22;20806;50.746;7.116;2023-02-14T02:40:05;6.20;99.90
34568;DHT22;20806;50.746;7.116;2023-02-14T02:45:15;6.10;99.90
34568;DHT22;20806;50.746;7.116;2023-02-14T02:50:21;6.10;99.90
34568;DHT22;20806;50.746;7.116;2023-02-14T02:53:23;6.20;99.90
34568;DHT22;20806;50.746;7.116;2023-02-14T02:58:44;6.20;99.90
34568;DHT22;20806;50.746;7.116;2023-02-14T03:01:11;6.20;99.90
34568;DHT22;20806;50.746;7.116;2023-02-14T03:03:38;6.30;99.90
34568;DHT22;20806;50.746;7.116;2023-02-14T03:06:23;6.20;99.90
34568;DHT22;20806;50.746;7.116;2023-02-14T03:08:48;6.20;99.90
34568;DHT22;20806;50.746;7.116;2023-02-14T03:11:14;6.10;99.90
34568;DHT22;20806;50.746;7.116;2023-02-14T03:16:20;6.00;99.90
34568;DHT22;20806;50.746;7.116;2023-02-14T03:26:48;6.00;99.90
34568;DHT22;20806;50.746;7.116;2023-02-14T03:34:45;6.00;99.90
34568;DHT22;20806;50.746;7.116;2023-02-14T03:40:09;6.00;99.90
34568;DHT22;20806;50.746;7.116;2023-02-14T03:42:38;6.00;99.90
34568;DHT22;20806;50.746;7.116;2023-02-14T03:45:07;5.90;99.90
34568;DHT22;20806;50.746;7.116;2023-02-14T03:47:33;5.90;99.90
34568;DHT22;20806;50.746;7.116;2023-02-14T03:50:08;5.90;99.90
34568;DHT22;20806;50.746;7.116;2023-02-14T03:52:34;5.90;99.90
34568;DHT22;20806;50.746;7.116;2023-02-14T03:55:02;5.80;99.90
34568;DHT22;20806;50.746;7.116;2023-02-14T03:57:33;5.80;99.90
34568;DHT22;20806;50.746;7.116;2023-02-14T04:00:01;5.80;99.90
34568;DHT22;20806;50.746;7.116;2023-02-14T04:02:30;5.70;99.90
34568;DHT22;20806;50.746;7.116;2023-02-14T04:04:57;5.70;99.90
34568;DHT22;20806;50.746;7.116;2023-02-14T04:07:24;5.70;99.90
34568;DHT22;20806;50.746;7.116;2023-02-14T04:09:49;5.70;99.90
34568;DHT22;20806;50.746;7.116;2023-02-14T04:12:15;5.70;99.90
34568;DHT22;20806;50.746;7.116;2023-02-14T04:14:41;5.70;99.90
34568;DHT22;20806;50.746;7.116;2023-02-14T04:17:07;5.70;99.90
34568;DHT22;20806;50.746;7.116;2023-02-14T04:19:51;5.70;99.90
34568;DHT22;20806;50.746;7.116;2023-02-14T04:22:16;5.70;99.90
34568;DHT22;20806;50.746;7.116;2023-02-14T04:24:42;5.70;99.90
34568;DHT22;20806;50.746;7.116;2023-02-14T04:27:07;5.70;99.90
34568;DHT22;20806;50.746;7.116;2023-02-14T04:29:36;5.80;99.90
34568;DHT22;20806;50.746;7.116;2023-02-14T04:32:03;5.80;99.90
34568;DHT22;20806;50.746;7.116;2023-02-14T04:34:29;5.80;99.90
34568;DHT22;20806;50.746;7.116;2023-02-14T04:36:54;5.80;99.90
34568;DHT22;20806;50.746;7.116;2023-02-14T04:39:20;5.70;99.90
34568;DHT22;20806;50.746;7.116;2023-02-14T04:41:45;5.70;99.90
34568;DHT22;20806;50.746;7.116;2023-02-14T04:44:11;5.70;99.90
34568;DHT22;20806;50.746;7.116;2023-02-14T04:46:36;5.70;99.90
34568;DHT22;20806;50.746;7.116;2023-02-14T04:49:01;5.60;99.90
34568;DHT22;20806;50.746;7.116;2023-02-14T04:51:27;5.60;99.90
34568;DHT22;20806;50.746;7.116;2023-02-14T04:53:52;5.60;99.90
34568;DHT22;20806;50.746;7.116;2023-02-14T04:56:18;5.60;99.90
34568;DHT22;20806;50.746;7.116;2023-02-14T04:58:43;5.60;99.90
34568;DHT22;20806;50.746;7.116;2023-02-14T05:01:09;5.60;99.90
34568;DHT22;20806;50.746;7.116;2023-02-14T05:03:34;5.60;99.90
34568;DHT22;20806;50.746;7.116;2023-02-14T05:06:00;5.50;99.90
34568;DHT22;20806;50.746;7.116;2023-02-14T05:08:26;5.50;99.90
34568;DHT22;20806;50.746;7.116;2023-02-14T05:10:51;5.50;99.90
34568;DHT22;20806;50.746;7.116;2023-02-14T05:13:18;5.40;99.90
34568;DHT22;20806;50.746;7.116;2023-02-14T05:15:44;5.40;99.90
34568;DHT22;20806;50.746;7.116;2023-02-14T05:18:10;5.50;99.90
34568;DHT22;20806;50.746;7.116;2023-02-14T05:20:35;5.40;99.90
34568;DHT22;20806;50.746;7.116;2023-02-14T05:23:00;5.50;99.90
34568;DHT22;20806;50.746;7.116;2023-02-14T05:25:28;5.40;99.90
34568;DHT22;20806;50.746;7.116;2023-02-14T05:27:54;5.50;99.90
34568;DHT22;20806;50.746;7.116;2023-02-14T05:30:19;5.40;99.90
34568;DHT22;20806;50.746;7.116;2023-02-14T05:32:50;5.40;99.90
34568;DHT22;20806;50.746;7.116;2023-02-14T05:35:16;5.30;99.90
34568;DHT22;20806;50.746;7.116;2023-02-14T05:37:41;5.30;99.90
34568;DHT22;20806;50.746;7.116;2023-02-14T05:40:09;5.20;99.90
34568;DHT22;20806;50.746;7.116;2023-02-14T05:42:37;5.20;99.90
34568;DHT22;20806;50.746;7.116;2023-02-14T05:45:03;5.20;99.90
34568;DHT22;20806;50.746;7.116;2023-02-14T05:47:28;5.20;99.90
34568;DHT22;20806;50.746;7.116;2023-02-14T05:49:54;5.20;99.90
34568;DHT22;20806;50.746;7.116;2023-02-14T05:52:19;5.20;99.90
34568;DHT22;20806;50.746;7.116;2023-02-14T05:54:45;5.10;99.90
34568;DHT22;20806;50.746;7.116;2023-02-14T05:57:10;5.10;99.90
34568;DHT22;20806;50.746;7.116;2023-02-14T05:59:36;5.00;99.90
34568;DHT22;20806;50.746;7.116;2023-02-14T06:02:01;5.10;99.90
34568;DHT22;20806;50.746;7.116;2023-02-14T06:04:27;5.10;99.90
34568;DHT22;20806;50.746;7.116;2023-02-14T06:06:52;5.00;99.90
34568;DHT22;20806;50.746;7.116;2023-02-14T06:09:18;5.00;99.90
34568;DHT22;20806;50.746;7.116;2023-02-14T06:11:44;5.10;99.90
34568;DHT22;20806;50.746;7.116;2023-02-14T06:14:09;5.10;99.90
34568;DHT22;20806;50.746;7.116;2023-02-14T06:16:35;5.00;99.90
34568;DHT22;20806;50.746;7.116;2023-02-14T06:19:00;5.00;99.90
34568;DHT22;20806;50.746;7.116;2023-02-14T06:21:26;5.00;99.90
34568;DHT22;20806;50.746;7.116;2023-02-14T06:23:51;5.10;99.90
34568;DHT22;20806;50.746;7.116;2023-02-14T06:26:17;5.00;99.90
34568;DHT22;20806;50.746;7.116;2023-02-14T06:28:42;5.00;99.90
34568;DHT22;20806;50.746;7.116;2023-02-14T06:31:13;5.00;99.90
34568;DHT22;20806;50.746;7.116;2023-02-14T06:33:38;5.00;99.90
34568;DHT22;20806;50.746;7.116;2023-02-14T06:36:04;4.90;99.90
34568;DHT22;20806;50.746;7.116;2023-02-14T06:38:29;4.90;99.90
34568;DHT22;20806;50.746;7.116;2023-02-14T06:41:00;4.80;99.90
34568;DHT22;20806;50.746;7.116;2023-02-14T06:43:26;4.80;99.90
34568;DHT22;20806;50.746;7.116;2023-02-14T06:45:51;4.80;99.90
34568;DHT22;20806;50.746;7.116;2023-02-14T06:48:17;4.80;99.90
34568;DHT22;20806;50.746;7.116;2023-02-14T06:50:42;4.70;99.90
34568;DHT22;20806;50.746;7.116;2023-02-14T06:53:08;4.80;99.90
34568;DHT22;20806;50.746;7.116;2023-02-14T06:55:33;4.80;99.90
34568;DHT22;20806;50.746;7.116;2023-02-14T06:57:59;4.80;99.90
34568;DHT22;20806;50.746;7.116;2023-02-14T07:00:24;4.90;99.90
34568;DHT22;20806;50.746;7.116;2023-02-14T07:02:50;4.90;99.90
34568;DHT22;20806;50.746;7.116;2023-02-14T07:05:15;5.00;99.90
34568;DHT22;20806;50.746;7.116;2023-02-14T07:07:43;5.00;99.90
34568;DHT22;20806;50.746;7.116;2023-02-14T07:10:09;5.00;99.90
34568;DHT22;20806;50.746;7.116;2023-02-14T07:12:34;5.00;99.90
34568;DHT22;20806;50.746;7.116;2023-02-14T07:14:59;5.00;99.90
34568;DHT22;20806;50.746;7.116;2023-02-14T07:17:25;5.00;99.90
34568;DHT22;20806;50.746;7.116;2023-02-14T07:19:50;5.00;99.90
34568;DHT22;20806;50.746;7.116;2023-02-14T07:22:16;5.10;99.90
34568;DHT22;20806;50.746;7.116;2023-02-14T07:24:41;5.10;99.90
34568;DHT22;20806;50.746;7.116;2023-02-14T07:27:07;5.10;99.90
34568;DHT22;20806;50.746;7.116;2023-02-14T07:29:32;5.20;99.90
34568;DHT22;20806;50.746;7.116;2023-02-14T07:31:58;5.20;99.90
34568;DHT22;20806;50.746;7.116;2023-02-14T07:34:23;5.20;99.90
34568;DHT22;20806;50.746;7.116;2023-02-14T07:36:49;5.30;99.90
34568;DHT22;20806;50.746;7.116;2023-02-14T07:39:14;5.30;99.90
34568;DHT22;20806;50.746;7.116;2023-02-14T07:41:40;5.40;99.90
34568;DHT22;20806;50.746;7.116;2023-02-14T07:44:05;5.50;99.90
34568;DHT22;20806;50.746;7.116;2023-02-14T07:46:31;5.60;99.90
34568;DHT22;20806;50.746;7.116;2023-02-14T07:48:56;5.70;99.90
34568;DHT22;20806;50.746;7.116;2023-02-14T07:51:22;5.70;99.90
34568;DHT22;20806;50.746;7.116;2023-02-14T07:53:47;5.80;99.90
34568;DHT22;20806;50.746;7.116;2023-02-14T07:56:13;5.80;99.90
34568;DHT22;20806;50.746;7.116;2023-02-14T07:58:38;5.80;99.90
34568;DHT22;20806;50.746;7.116;2023-02-14T08:01:04;5.90;99.90
34568;DHT22;20806;50.746;7.116;2023-02-14T08:03:29;5.90;99.90
34568;DHT22;20806;50.746;7.116;2023-02-14T08:05:55;5.90;99.90
34568;DHT22;20806;50.746;7.116;2023-02-14T08:08:24;6.00;99.90
34568;DHT22;20806;50.746;7.116;2023-02-14T08:10:49;6.00;99.90
34568;DHT22;20806;50.746;7.116;2023-02-14T08:13:15;6.00;99.90
34568;DHT22;20806;50.746;7.116;2023-02-14T08:15:40;6.10;99.90
34568;DHT22;20806;50.746;7.116;2023-02-14T08:18:24;6.10;99.90
34568;DHT22;20806;50.746;7.116;2023-02-14T08:20:51;6.10;99.90
34568;DHT22;20806;50.746;7.116;2023-02-14T08:23:17;6.20;99.90
34568;DHT22;20806;50.746;7.116;2023-02-14T08:25:43;6.20;99.90
34568;DHT22;20806;50.746;7.116;2023-02-14T08:28:08;6.30;99.90
34568;DHT22;20806;50.746;7.116;2023-02-14T08:30:37;6.30;99.90
34568;DHT22;20806;50.746;7.116;2023-02-14T08:33:03;6.30;99.90
34568;DHT22;20806;50.746;7.116;2023-02-14T08:35:28;6.40;99.90
34568;DHT22;20806;50.746;7.116;2023-02-14T08:37:54;6.40;99.90
34568;DHT22;20806;50.746;7.116;2023-02-14T08:40:19;6.40;99.90
34568;DHT22;20806;50.746;7.116;2023-02-14T08:42:45;6.50;99.90
34568;DHT22;20806;50.746;7.116;2023-02-14T08:45:10;6.60;99.90
34568;DHT22;20806;50.746;7.116;2023-02-14T08:47:36;6.70;99.90
34568;DHT22;20806;50.746;7.116;2023-02-14T08:50:07;6.70;99.90
34568;DHT22;20806;50.746;7.116;2023-02-14T08:52:32;6.80;99.90
34568;DHT22;20806;50.746;7.116;2023-02-14T08:54:58;6.80;99.90
34568;DHT22;20806;50.746;7.116;2023-02-14T08:57:23;6.80;99.90
34568;DHT22;20806;50.746;7.116;2023-02-14T08:59:49;6.80;99.90
34568;DHT22;20806;50.746;7.116;2023-02-14T09:02:14;6.90;99.90
34568;DHT22;20806;50.746;7.116;2023-02-14T09:04:43;6.90;99.90
34568;DHT22;20806;50.746;7.116;2023-02-14T09:07:10;7.00;99.90
34568;DHT22;20806;50.746;7.116;2023-02-14T09:09:35;7.10;99.90
34568;DHT22;20806;50.746;7.116;2023-02-14T09:12:07;7.10;99.90
34568;DHT22;20806;50.746;7.116;2023-02-14T09:14:36;7.10;99.90
34568;DHT22;20806;50.746;7.116;2023-02-14T09:17:01;7.20;99.90
34568;DHT22;20806;50.746;7.116;2023-02-14T09:19:30;7.20;99.90
34568;DHT22;20806;50.746;7.116;2023-02-14T09:21:56;7.20;99.90
34568;DHT22;20806;50.746;7.116;2023-02-14T09:24:21;7.20;99.90
34568;DHT22;20806;50.746;7.116;2023-02-14T09:26:47;7.30;99.90
34568;DHT22;20806;50.746;7.116;2023-02-14T09:29:12;7.30;99.90
34568;DHT22;20806;50.746;7.116;2023-02-14T09:31:40;7.40;99.90
34568;DHT22;20806;50.746;7.116;2023-02-14T09:34:05;7.40;99.90
34568;DHT22;20806;50.746;7.116;2023-02-14T09:36:31;7.50;99.90
34568;DHT22;20806;50.746;7.116;2023-02-14T09:38:56;7.50;99.90
34568;DHT22;20806;50.746;7.116;2023-02-14T09:43:52;7.60;99.90
34568;DHT22;20806;50.746;7.116;2023-02-14T09:46:19;7.70;99.90
34568;DHT22;20806;50.746;7.116;2023-02-14T09:48:46;7.70;99.90
34568;DHT22;20806;50.746;7.116;2023-02-14T09:51:13;7.80;99.90
34568;DHT22;20806;50.746;7.116;2023-02-14T09:53:44;7.90;99.90
34568;DHT22;20806;50.746;7.116;2023-02-14T09:56:16;7.90;99.90
34568;DHT22;20806;50.746;7.116;2023-02-14T10:01:25;8.10;99.90
34568;DHT22;20806;50.746;7.116;2023-02-14T10:03:54;8.10;99.90
34568;DHT22;20806;50.746;7.116;2023-02-14T10:06:44;8.20;99.90
34568;DHT22;20806;50.746;7.116;2023-02-14T10:11:54;8.20;99.90
34568;DHT22;20806;50.746;7.116;2023-02-14T10:14:22;8.30;99.90
34568;DHT22;20806;50.746;7.116;2023-02-14T10:16:58;8.30;99.90
34568;DHT22;20806;50.746;7.116;2023-02-14T10:19:43;8.40;99.90
34568;DHT22;20806;50.746;7.116;2023-02-14T10:22:13;8.40;99.90
34568;DHT22;20806;50.746;7.116;2023-02-14T10:24:44;8.40;99.90
34568;DHT22;20806;50.746;7.116;2023-02-14T10:29:56;8.50;99.90
34568;DHT22;20806;50.746;7.116;2023-02-14T10:32:26;8.60;99.90
34568;DHT22;20806;50.746;7.116;2023-02-14T10:34:55;8.60;99.90
34568;DHT22;20806;50.746;7.116;2023-02-14T10:40:13;8.70;99.90
34568;DHT22;20806;50.746;7.116;2023-02-14T10:45:33;8.80;99.90
34568;DHT22;20806;50.746;7.116;2023-02-14T10:48:04;8.80;99.90
34568;DHT22;20806;50.746;7.116;2023-02-14T10:58:26;9.00;99.90
34568;DHT22;20806;50.746;7.116;2023-02-14T11:03:33;9.00;99.90
34568;DHT22;20806;50.746;7.116;2023-02-14T11:05:59;9.00;99.90
34568;DHT22;20806;50.746;7.116;2023-02-14T11:08:40;9.10;99.90
34568;DHT22;20806;50.746;7.116;2023-02-14T11:11:09;9.10;99.90
34568;DHT22;20806;50.746;7.116;2023-02-14T11:13:40;9.10;99.90
34568;DHT22;20806;50.746;7.116;2023-02-14T11:16:09;9.20;99.90
34568;DHT22;20806;50.746;7.116;2023-02-14T11:18:36;9.20;99.90
34568;DHT22;20806;50.746;7.116;2023-02-14T11:21:09;9.20;99.90
34568;DHT22;20806;50.746;7.116;2023-02-14T11:26:00;9.30;99.90
34568;DHT22;20806;50.746;7.116;2023-02-14T11:28:27;9.30;99.90
34568;DHT22;20806;50.746;7.116;2023-02-14T11:30:52;9.30;99.90
34568;DHT22;20806;50.746;7.116;2023-02-14T11:33:36;9.40;99.90
34568;DHT22;20806;50.746;7.116;2023-02-14T11:36:03;9.40;99.90
34568;DHT22;20806;50.746;7.116;2023-02-14T11:38:33;9.40;99.90
34568;DHT22;20806;50.746;7.116;2023-02-14T11:41:01;9.50;99.90
34568;DHT22;20806;50.746;7.116;2023-02-14T11:46:12;9.60;99.90
34568;DHT22;20806;50.746;7.116;2023-02-14T11:48:38;9.60;99.90
34568;DHT22;20806;50.746;7.116;2023-02-14T11:51:17;9.70;99.90
34568;DHT22;20806;50.746;7.116;2023-02-14T11:53:48;9.80;99.90
34568;DHT22;20806;50.746;7.116;2023-02-14T11:56:14;9.80;99.90
34568;DHT22;20806;50.746;7.116;2023-02-14T11:58:57;9.90;99.90
34568;DHT22;20806;50.746;7.116;2023-02-14T12:01:27;9.90;99.90
34568;DHT22;20806;50.746;7.116;2023-02-14T12:03:54;9.90;99.90
34568;DHT22;20806;50.746;7.116;2023-02-14T12:06:24;10.00;99.90
34568;DHT22;20806;50.746;7.116;2023-02-14T12:08:50;10.00;99.90
34568;DHT22;20806;50.746;7.116;2023-02-14T12:11:21;10.10;99.90
34568;DHT22;20806;50.746;7.116;2023-02-14T12:13:54;10.10;99.90
34568;DHT22;20806;50.746;7.116;2023-02-14T12:16:21;10.20;99.90
34568;DHT22;20806;50.746;7.116;2023-02-14T12:21:31;10.40;99.90
34568;DHT22;20806;50.746;7.116;2023-02-14T12:24:01;10.50;99.90
34568;DHT22;20806;50.746;7.116;2023-02-14T12:29:00;10.90;99.90
34568;DHT22;20806;50.746;7.116;2023-02-14T12:31:28;11.20;99.90
34568;DHT22;20806;50.746;7.116;2023-02-14T12:33:54;11.40;99.90
34568;DHT22;20806;50.746;7.116;2023-02-14T12:39:07;11.90;99.90
34568;DHT22;20806;50.746;7.116;2023-02-14T12:49:25;13.00;99.90
34568;DHT22;20806;50.746;7.116;2023-02-14T12:59:50;13.90;99.90
34568;DHT22;20806;50.746;7.116;2023-02-14T13:04:53;14.20;99.90
34568;DHT22;20806;50.746;7.116;2023-02-14T13:07:42;14.40;99.90
34568;DHT22;20806;50.746;7.116;2023-02-14T13:10:13;14.60;99.90
34568;DHT22;20806;50.746;7.116;2023-02-14T13:15:28;14.90;99.50
34568;DHT22;20806;50.746;7.116;2023-02-14T13:17:59;15.20;99.90
34568;DHT22;20806;50.746;7.116;2023-02-14T13:20:31;15.40;99.30
34568;DHT22;20806;50.746;7.116;2023-02-14T13:23:10;15.70;98.80
34568;DHT22;20806;50.746;7.116;2023-02-14T13:25:38;15.90;99.90
34568;DHT22;20806;50.746;7.116;2023-02-14T13:28:10;16.10;99.90
34568;DHT22;20806;50.746;7.116;2023-02-14T15:22:53;14.20;99.90
34568;DHT22;20806;50.746;7.116;2023-02-14T15:25:24;13.90;99.90
34568;DHT22;20806;50.746;7.116;2023-02-14T15:27:50;13.70;98.60
34568;DHT22;20806;50.746;7.116;2023-02-14T15:32:45;13.40;98.40
34568;DHT22;20806;50.746;7.116;2023-02-14T15:42:33;13.00;99.90
34568;DHT22;20806;50.746;7.116;2023-02-14T15:45:16;12.90;99.90
34568;DHT22;20806;50.746;7.116;2023-02-14T15:47:43;12.80;99.90
34568;DHT22;20806;50.746;7.116;2023-02-14T15:50:16;12.70;99.90
34568;DHT22;20806;50.746;7.116;2023-02-14T15:52:42;12.60;99.90
34568;DHT22;20806;50.746;7.116;2023-02-14T15:55:08;12.50;99.90
34568;DHT22;20806;50.746;7.116;2023-02-14T15:57:35;12.40;99.90
34568;DHT22;20806;50.746;7.116;2023-02-14T16:00:04;12.30;99.90
34568;DHT22;20806;50.746;7.116;2023-02-14T16:02:32;12.20;99.90
34568;DHT22;20806;50.746;7.116;2023-02-14T16:05:04;12.10;99.90
34568;DHT22;20806;50.746;7.116;2023-02-14T16:07:30;12.00;99.60
34568;DHT22;20806;50.746;7.116;2023-02-14T16:12:40;11.80;99.90
34568;DHT22;20806;50.746;7.116;2023-02-14T16:17:35;11.70;99.90
34568;DHT22;20806;50.746;7.116;2023-02-14T16:22:45;11.60;99.90
34568;DHT22;20806;50.746;7.116;2023-02-14T16:25:11;11.50;99.90
34568;DHT22;20806;50.746;7.116;2023-02-14T16:27:36;11.50;99.90
34568;DHT22;20806;50.746;7.116;2023-02-14T16:30:02;11.40;99.90
34568;DHT22;20806;50.746;7.116;2023-02-14T16:32:27;11.30;99.90
34568;DHT22;20806;50.746;7.116;2023-02-14T16:34:53;11.20;99.90
34568;DHT22;20806;50.746;7.116;2023-02-14T16:37:27;11.20;99.90
34568;DHT22;20806;50.746;7.116;2023-02-14T16:39:53;11.10;99.90
34568;DHT22;20806;50.746;7.116;2023-02-14T16:42:22;11.00;99.90
34568;DHT22;20806;50.746;7.116;2023-02-14T16:44:47;11.00;99.90
34568;DHT22;20806;50.746;7.116;2023-02-14T16:47:13;10.90;99.90
34568;DHT22;20806;50.746;7.116;2023-02-14T16:49:39;10.80;99.90
34568;DHT22;20806;50.746;7.116;2023-02-14T16:52:16;10.80;99.90
34568;DHT22;20806;50.746;7.116;2023-02-14T16:54:41;10.60;99.90
34568;DHT22;20806;50.746;7.116;2023-02-14T16:57:08;10.60;99.90
34568;DHT22;20806;50.746;7.116;2023-02-14T17:04:27;10.30;99.90
34568;DHT22;20806;50.746;7.116;2023-02-14T17:06:53;10.40;99.90
34568;DHT22;20806;50.746;7.116;2023-02-14T17:09:23;10.30;99.90
34568;DHT22;20806;50.746;7.116;2023-02-14T17:11:50;10.20;99.90
34568;DHT22;20806;50.746;7.116;2023-02-14T17:14:18;10.10;99.90
34568;DHT22;20806;50.746;7.116;2023-02-14T17:16:45;10.00;99.90
34568;DHT22;20806;50.746;7.116;2023-02-14T17:53:15;9.10;99.90
34568;DHT22;20806;50.746;7.116;2023-02-14T17:55:42;9.00;99.90
34568;DHT22;20806;50.746;7.116;2023-02-14T17:58:07;8.90;99.90
34568;DHT22;20806;50.746;7.116;2023-02-14T18:02:59;8.70;99.90
34568;DHT22;20806;50.746;7.116;2023-02-14T18:05:24;8.80;99.90
34568;DHT22;20806;50.746;7.116;2023-02-14T18:07:50;8.70;99.90
34568;DHT22;20806;50.746;7.116;2023-02-14T18:10:16;8.60;99.90
34568;DHT22;20806;50.746;7.116;2023-02-14T18:12:41;8.60;99.90
34568;DHT22;20806;50.746;7.116;2023-02-14T18:15:08;8.50;99.90
34568;DHT22;20806;50.746;7.116;2023-02-14T18:17:34;8.50;99.90
34568;DHT22;20806;50.746;7.116;2023-02-14T18:19:59;8.50;99.90
34568;DHT22;20806;50.746;7.116;2023-02-14T18:22:25;8.40;99.90
34568;DHT22;20806;50.746;7.116;2023-02-14T18:24:52;8.40;99.90
34568;DHT22;20806;50.746;7.116;2023-02-14T18:27:19;8.30;99.90
34568;DHT22;20806;50.746;7.116;2023-02-14T18:29:45;8.30;99.90
34568;DHT22;20806;50.746;7.116;2023-02-14T18:32:10;8.20;99.90
34568;DHT22;20806;50.746;7.116;2023-02-14T18:34:36;8.20;99.90
34568;DHT22;20806;50.746;7.116;2023-02-14T18:37:02;8.20;99.90
34568;DHT22;20806;50.746;7.116;2023-02-14T18:39:28;8.20;99.90
34568;DHT22;20806;50.746;7.116;2023-02-14T18:41:54;8.20;99.90
34568;DHT22;20806;50.746;7.116;2023-02-14T18:44:25;8.20;99.90
34568;DHT22;20806;50.746;7.116;2023-02-14T18:46:51;8.20;99.90
34568;DHT22;20806;50.746;7.116;2023-02-14T18:49:16;8.20;99.90
34568;DHT22;20806;50.746;7.116;2023-02-14T22:41:15;5.40;99.90
34568;DHT22;20806;50.746;7.116;2023-02-14T22:43:41;5.40;99.90
34568;DHT22;20806;50.746;7.116;2023-02-14T22:46:08;5.40;99.90
34568;DHT22;20806;50.746;7.116;2023-02-14T22:48:34;5.40;99.90
34568;DHT22;20806;50.746;7.116;2023-02-14T22:51:07;5.40;99.90
34568;DHT22;20806;50.746;7.116;2023-02-14T22:53:32;5.40;99.90
34568;DHT22;20806;50.746;7.116;2023-02-14T22:56:07;5.40;99.90
34568;DHT22;20806;50.746;7.116;2023-02-14T22:58:32;5.30;99.90
34568;DHT22;20806;50.746;7.116;2023-02-14T23:00:58;5.30;99.90
34568;DHT22;20806;50.746;7.116;2023-02-14T23:03:23;5.30;99.90
34568;DHT22;20806;50.746;7.116;2023-02-14T23:05:54;5.30;99.90
34568;DHT22;20806;50.746;7.116;2023-02-14T23:08:19;5.30;99.90
34568;DHT22;20806;50.746;7.116;2023-02-14T23:10:45;5.30;99.90
34568;DHT22;20806;50.746;7.116;2023-02-14T23:13:11;5.30;99.90
34568;DHT22;20806;50.746;7.116;2023-02-14T23:15:55;5.30;99.90
34568;DHT22;20806;50.746;7.116;2023-02-14T23:18:39;5.30;99.90
34568;DHT22;20806;50.746;7.116;2023-02-14T23:21:23;5.40;99.90
34568;DHT22;20806;50.746;7.116;2023-02-14T23:24:07;5.30;99.90
34568;DHT22;20806;50.746;7.116;2023-02-14T23:26:33;5.30;99.90
34568;DHT22;20806;50.746;7.116;2023-02-14T23:28:58;5.20;99.90
34568;DHT22;20806;50.746;7.116;2023-02-14T23:31:24;5.20;99.90
34568;DHT22;20806;50.746;7.116;2023-02-14T23:33:50;5.20;99.90
34568;DHT22;20806;50.746;7.116;2023-02-14T23:36:16;5.20;99.90
34568;DHT22;20806;50.746;7.116;2023-02-14T23:38:41;5.20;99.90
34568;DHT22;20806;50.746;7.116;2023-02-14T23:41:10;5.30;99.90
34568;DHT22;20806;50.746;7.116;2023-02-14T23:43:54;5.30;99.90
34568;DHT22;20806;50.746;7.116;2023-02-14T23:46:20;5.20;99.90
34568;DHT22;20806;50.746;7.116;2023-02-14T23:48:46;5.20;99.90
34568;DHT22;20806;50.746;7.116;2023-02-14T23:51:11;5.20;99.90
34568;DHT22;20806;50.746;7.116;2023-02-14T23:53:37;5.10;99.90
34568;DHT22;20806;50.746;7.116;2023-02-14T23:56:02;5.20;99.90
34568;DHT22;20806;50.746;7.116;2023-02-14T23:58:28;5.10;99.90
